createdAt,value
2022-12-14T00:02:15.260Z,0.08
2022-12-14T00:05:00.646Z,0.14
2022-12-14T00:07:45.975Z,0.11
2022-12-14T00:10:35.314Z,-0.02
2022-12-14T00:13:20.531Z,0.05
2022-12-14T00:16:17.344Z,0.06
2022-12-14T00:19:05.265Z,-0.05
2022-12-14T00:21:51.653Z,0.09
2022-12-14T00:24:38.707Z,0.17
2022-12-14T00:27:23.696Z,0.25
2022-12-14T00:30:10.515Z,0.18
2022-12-14T00:32:56.806Z,0.26
2022-12-14T00:35:42.170Z,0.18
2022-12-14T00:38:28.480Z,0.26
2022-12-14T00:41:13.874Z,0.07
2022-12-14T00:43:59.435Z,0.08
2022-12-14T00:46:44.711Z,0.08
2022-12-14T00:49:30.050Z,0.10
2022-12-14T00:52:15.106Z,0.06
2022-12-14T00:55:00.427Z,0.14
2022-12-14T00:57:45.820Z,0.16
2022-12-14T01:00:31.675Z,-0.02
2022-12-14T01:03:16.939Z,0.14
2022-12-14T01:06:02.657Z,0.25
2022-12-14T01:08:49.031Z,0.21
2022-12-14T01:11:34.110Z,0.19
2022-12-14T01:14:21.243Z,0.05
2022-12-14T01:17:07.062Z,0.18
2022-12-14T01:19:52.063Z,0.32
2022-12-14T01:22:37.948Z,0.25
2022-12-14T01:25:23.241Z,0.25
2022-12-14T01:28:08.487Z,0.06
2022-12-14T01:30:53.336Z,0.06
2022-12-14T01:33:38.780Z,0.13
2022-12-14T01:36:26.585Z,0.18
2022-12-14T01:39:13.914Z,0.06
2022-12-14T01:41:59.270Z,-0.01
2022-12-14T01:44:44.348Z,0.07
2022-12-14T01:47:37.744Z,0.01
2022-12-14T01:50:37.785Z,0.03
2022-12-14T01:53:23.670Z,0.00
2022-12-14T01:56:09.111Z,-0.17
2022-12-14T01:58:57.530Z,-0.15
2022-12-14T02:01:43.080Z,-0.04
2022-12-14T02:04:28.985Z,-0.04
2022-12-14T02:07:16.001Z,0.03
2022-12-14T02:10:05.532Z,0.03
2022-12-14T02:12:57.260Z,0.10
2022-12-14T02:15:43.538Z,0.24
2022-12-14T02:18:31.228Z,0.33
2022-12-14T02:21:25.153Z,0.11
2022-12-14T02:24:22.833Z,0.39
2022-12-14T02:27:32.564Z,0.29
2022-12-14T02:30:27.037Z,0.09
2022-12-14T02:33:11.859Z,-0.01
2022-12-14T02:36:00.297Z,-0.09
2022-12-14T02:38:59.270Z,-0.27
2022-12-14T02:42:04.346Z,-0.34
2022-12-14T02:45:06.174Z,-0.46
2022-12-14T02:47:58.980Z,-0.45
2022-12-14T02:50:53.725Z,-0.43
2022-12-14T02:53:53.832Z,-0.42
2022-12-14T02:56:50.662Z,-0.35
2022-12-14T02:59:36.340Z,-0.33
2022-12-14T03:02:21.563Z,-0.29
2022-12-14T03:05:07.166Z,-0.39
2022-12-14T03:08:03.879Z,-0.28
2022-12-14T03:10:55.246Z,-0.34
2022-12-14T03:13:49.834Z,-0.36
2022-12-14T03:16:44.806Z,-0.36
2022-12-14T03:19:38.904Z,-0.42
2022-12-14T03:22:28.764Z,-0.50
2022-12-14T03:25:19.517Z,-0.64
2022-12-14T03:28:14.560Z,-0.63
2022-12-14T03:31:06.821Z,-0.64
2022-12-14T03:33:54.948Z,-0.66
2022-12-14T03:37:04.263Z,-0.68
2022-12-14T03:39:49.620Z,-0.66
2022-12-14T03:43:05.206Z,-0.70
2022-12-14T03:46:16.807Z,-0.62
2022-12-14T03:49:28.290Z,-0.71
2022-12-14T03:52:19.474Z,-0.61
2022-12-14T03:55:13.431Z,-0.56
2022-12-14T03:58:10.115Z,-0.67
2022-12-14T04:01:15.553Z,-0.73
2022-12-14T04:04:10.902Z,-0.86
2022-12-14T04:07:14.041Z,-0.93
2022-12-14T04:10:36.567Z,-1.02
2022-12-14T04:13:49.004Z,-0.90
2022-12-14T04:16:59.379Z,-0.91
2022-12-14T04:19:54.816Z,-0.96
2022-12-14T04:22:49.496Z,-1.10
2022-12-14T04:25:57.343Z,-1.05
2022-12-14T04:29:08.819Z,-0.98
2022-12-14T04:32:01.553Z,-1.07
2022-12-14T04:34:51.111Z,-1.05
2022-12-14T04:37:39.278Z,-1.14
2022-12-14T04:40:37.201Z,-1.04
2022-12-14T04:43:28.298Z,-0.99
2022-12-14T04:46:40.389Z,-0.96
2022-12-14T04:49:49.233Z,-0.96
2022-12-14T04:52:40.904Z,-1.20
2022-12-14T04:55:41.976Z,-1.01
2022-12-14T04:58:29.997Z,-1.05
2022-12-14T05:01:24.387Z,-1.00
2022-12-14T05:04:25.412Z,-0.98
2022-12-14T05:07:14.106Z,-0.98
2022-12-14T05:10:09.593Z,-0.92
2022-12-14T05:13:03.549Z,-0.92
2022-12-14T05:15:51.915Z,-0.86
2022-12-14T05:18:37.217Z,-0.96
2022-12-14T05:21:40.829Z,-1.23
2022-12-14T05:24:26.029Z,-1.54
2022-12-14T05:27:10.850Z,-1.44
2022-12-14T05:29:56.202Z,-1.51
2022-12-14T05:32:41.714Z,-1.47
2022-12-14T05:35:26.843Z,-1.52
2022-12-14T05:38:13.203Z,-1.50
2022-12-14T05:40:58.421Z,-1.49
2022-12-14T05:43:43.754Z,-1.36
2022-12-14T05:46:28.754Z,-1.29
2022-12-14T05:49:13.815Z,-1.00
2022-12-14T05:51:59.200Z,-1.18
2022-12-14T05:54:44.394Z,-1.02
2022-12-14T05:57:33.652Z,-0.96
2022-12-14T06:00:18.865Z,-0.78
2022-12-14T06:03:04.165Z,-0.76
2022-12-14T06:05:49.306Z,-0.76
2022-12-14T06:08:37.066Z,-0.67
2022-12-14T06:11:23.335Z,-0.71
2022-12-14T06:14:09.646Z,-0.71
2022-12-14T06:16:54.763Z,-0.64
2022-12-14T06:19:39.864Z,-0.60
2022-12-14T06:22:25.108Z,-0.59
2022-12-14T06:25:10.037Z,-0.67
2022-12-14T06:27:55.481Z,-0.57
2022-12-14T06:30:40.768Z,-0.67
2022-12-14T06:33:27.031Z,-0.53
2022-12-14T06:36:34.173Z,-0.54
2022-12-14T06:39:19.086Z,-0.70
2022-12-14T06:42:04.743Z,-0.56
2022-12-14T06:44:50.013Z,-0.50
2022-12-14T06:47:35.000Z,-0.51
2022-12-14T06:50:20.355Z,-0.65
2022-12-14T06:53:05.577Z,-0.60
2022-12-14T06:55:50.832Z,-0.61
2022-12-14T06:58:36.205Z,-0.66
2022-12-14T07:01:24.163Z,-0.69
2022-12-14T07:04:09.830Z,-0.68
2022-12-14T07:06:54.989Z,-0.73
2022-12-14T07:09:40.056Z,-0.64
2022-12-14T07:12:25.496Z,-0.76
2022-12-14T07:15:11.199Z,-0.76
2022-12-14T07:17:56.306Z,-0.79
2022-12-14T07:20:41.294Z,-0.68
2022-12-14T07:23:28.599Z,-0.65
2022-12-14T07:26:32.662Z,-0.74
2022-12-14T07:29:17.671Z,-0.78
2022-12-14T07:32:03.836Z,-0.66
2022-12-14T07:34:48.878Z,-0.78
2022-12-14T07:37:33.723Z,-0.79
2022-12-14T07:40:18.927Z,-0.91
2022-12-14T07:43:03.859Z,-1.01
2022-12-14T07:45:49.389Z,-0.90
2022-12-14T07:48:34.963Z,-0.90
2022-12-14T07:51:23.127Z,-0.62
2022-12-14T07:54:08.773Z,-0.60
2022-12-14T07:56:53.593Z,-0.98
2022-12-14T07:59:40.022Z,-1.09
2022-12-14T08:02:25.417Z,-1.00
2022-12-14T08:05:12.752Z,-0.95
2022-12-14T08:07:58.262Z,-0.95
2022-12-14T08:10:43.138Z,-1.11
2022-12-14T08:13:28.717Z,-1.11
2022-12-14T08:16:16.061Z,-1.14
2022-12-14T08:19:01.655Z,-1.04
2022-12-14T08:21:46.974Z,-1.04
2022-12-14T08:24:32.171Z,-1.11
2022-12-14T08:27:17.132Z,-1.04
2022-12-14T08:30:02.315Z,-1.01
2022-12-14T08:32:47.070Z,-0.91
2022-12-14T08:35:35.717Z,-0.81
2022-12-14T08:38:20.948Z,-0.80
2022-12-14T08:41:14.782Z,-0.68
2022-12-14T08:44:01.800Z,-0.68
2022-12-14T08:46:46.975Z,-0.59
2022-12-14T08:49:32.920Z,-0.57
2022-12-14T08:52:18.342Z,-0.55
2022-12-14T08:55:03.748Z,-0.65
2022-12-14T08:57:48.876Z,-0.70
2022-12-14T09:00:34.324Z,-0.57
2022-12-14T09:03:19.624Z,-0.49
2022-12-14T09:06:07.688Z,-0.51
2022-12-14T09:08:52.700Z,-0.47
2022-12-14T09:11:37.880Z,-0.47
2022-12-14T09:14:23.282Z,-0.15
2022-12-14T09:17:08.424Z,-0.17
2022-12-14T09:19:53.638Z,-0.17
2022-12-14T09:22:39.124Z,-0.26
2022-12-14T09:25:24.052Z,-0.09
2022-12-14T09:28:09.172Z,-0.09
2022-12-14T09:30:56.533Z,-0.01
2022-12-14T09:33:41.531Z,-0.02
2022-12-14T09:36:28.214Z,0.20
2022-12-14T09:39:15.014Z,0.29
2022-12-14T09:42:09.590Z,0.38
2022-12-14T09:45:07.186Z,0.42
2022-12-14T09:48:18.258Z,0.36
2022-12-14T09:51:03.679Z,0.46
2022-12-14T09:54:02.539Z,0.64
2022-12-14T09:56:48.453Z,0.81
2022-12-14T09:59:34.068Z,0.86
2022-12-14T10:02:39.905Z,0.73
2022-12-14T10:05:57.809Z,0.71
2022-12-14T10:09:04.717Z,1.04
2022-12-14T10:12:08.733Z,1.04
2022-12-14T10:15:08.988Z,1.01
2022-12-14T10:18:00.373Z,0.99
2022-12-14T10:21:12.846Z,1.10
2022-12-14T10:24:02.720Z,3.60
2022-12-14T10:26:52.044Z,5.33
2022-12-14T10:29:46.674Z,3.96
2022-12-14T10:32:40.582Z,2.95
2022-12-14T10:35:31.979Z,2.71
2022-12-14T10:38:37.264Z,2.35
2022-12-14T10:41:28.776Z,2.41
2022-12-14T10:44:21.193Z,2.49
2022-12-14T10:47:17.657Z,2.59
2022-12-14T10:50:16.067Z,2.65
2022-12-14T10:53:04.188Z,2.71
2022-12-14T10:55:55.844Z,2.81
2022-12-14T10:58:44.670Z,2.74
2022-12-14T11:01:29.618Z,2.95
2022-12-14T11:04:44.793Z,2.94
2022-12-14T11:07:33.175Z,2.94
2022-12-14T11:10:32.602Z,3.04
2022-12-14T11:13:20.697Z,3.09
2022-12-14T11:16:30.312Z,2.93
2022-12-14T11:19:21.993Z,2.88
2022-12-14T11:22:21.789Z,2.87
2022-12-14T11:25:27.515Z,2.95
2022-12-14T11:28:49.940Z,2.91
2022-12-14T11:31:39.103Z,3.08
2022-12-14T11:34:39.087Z,3.13
2022-12-14T11:37:30.773Z,3.19
2022-12-14T11:40:27.703Z,3.03
2022-12-14T11:43:27.802Z,3.27
2022-12-14T11:46:13.146Z,3.24
2022-12-14T11:48:58.032Z,3.26
2022-12-14T11:52:01.545Z,3.18
2022-12-14T11:54:50.163Z,3.22
2022-12-14T11:57:42.654Z,3.24
2022-12-14T12:00:31.400Z,3.26
2022-12-14T12:03:30.292Z,3.22
2022-12-14T12:06:22.524Z,3.02
2022-12-14T12:09:26.449Z,3.03
2022-12-14T12:12:21.287Z,3.35
2022-12-14T12:15:16.515Z,3.40
2022-12-14T12:18:25.813Z,3.19
2022-12-14T12:21:27.831Z,3.27
2022-12-14T12:24:12.833Z,3.21
2022-12-14T12:27:11.560Z,3.13
2022-12-14T12:30:28.622Z,3.09
2022-12-14T12:33:28.862Z,2.98
2022-12-14T12:36:22.024Z,3.00
2022-12-14T12:39:16.139Z,3.00
2022-12-14T12:42:26.814Z,2.95
2022-12-14T12:45:30.740Z,2.79
2022-12-14T12:48:21.677Z,2.94
2022-12-14T12:51:14.535Z,2.93
2022-12-14T12:54:12.003Z,2.91
2022-12-14T12:57:00.477Z,2.95
2022-12-14T12:59:55.855Z,2.96
2022-12-14T13:02:51.661Z,2.91
2022-12-14T13:05:48.404Z,2.87
2022-12-14T13:08:39.306Z,3.33
2022-12-14T13:11:35.135Z,3.17
2022-12-14T13:14:32.481Z,2.87
2022-12-14T13:17:33.626Z,2.90
2022-12-14T13:20:27.113Z,2.90
2022-12-14T13:23:43.473Z,2.81
2022-12-14T13:26:56.525Z,2.76
2022-12-14T13:30:01.865Z,2.61
2022-12-14T13:33:05.523Z,2.64
2022-12-14T13:35:53.762Z,2.66
2022-12-14T13:39:17.699Z,2.62
2022-12-14T13:42:37.719Z,2.65
2022-12-14T13:45:27.907Z,2.71
2022-12-14T13:48:23.604Z,2.63
2022-12-14T13:51:18.967Z,2.53
2022-12-14T13:54:07.797Z,2.46
2022-12-14T13:57:24.318Z,2.34
2022-12-14T14:00:44.587Z,2.27
2022-12-14T14:03:32.741Z,2.32
2022-12-14T14:06:22.344Z,2.17
2022-12-14T14:09:25.884Z,2.12
2022-12-14T14:12:32.265Z,2.09
2022-12-14T14:15:29.925Z,2.20
2022-12-14T14:18:20.572Z,2.16
2022-12-14T14:21:30.708Z,2.05
2022-12-14T14:24:16.831Z,2.07
2022-12-14T14:27:19.013Z,2.00
2022-12-14T14:30:35.684Z,1.90
2022-12-14T14:33:45.988Z,1.86
2022-12-14T14:36:35.739Z,1.74
2022-12-14T14:42:47.932Z,1.62
2022-12-14T14:45:41.095Z,1.56
2022-12-14T14:48:44.356Z,1.64
2022-12-14T14:51:34.324Z,1.53
2022-12-14T14:58:05.187Z,2.39
2022-12-14T15:01:16.283Z,1.80
2022-12-14T15:04:06.121Z,1.50
2022-12-14T15:06:57.298Z,1.39
2022-12-14T15:10:04.294Z,1.25
2022-12-14T15:12:53.044Z,1.14
2022-12-14T15:15:44.193Z,1.21
2022-12-14T15:18:31.868Z,1.19
2022-12-14T15:21:18.735Z,1.12
2022-12-14T15:24:04.134Z,1.07
2022-12-14T15:26:49.137Z,0.95
2022-12-14T15:29:34.523Z,1.07
2022-12-14T15:32:23.778Z,0.99
2022-12-14T15:35:15.442Z,0.92
2022-12-14T15:38:06.294Z,0.91
2022-12-14T15:40:57.354Z,0.79
2022-12-14T15:43:47.696Z,0.82
2022-12-14T15:46:34.514Z,0.83
2022-12-14T15:49:23.145Z,0.77
2022-12-14T15:52:10.634Z,0.77
2022-12-14T15:54:56.255Z,0.67
2022-12-14T15:57:41.307Z,0.57
2022-12-14T16:00:26.588Z,0.52
2022-12-14T16:03:30.624Z,0.56
2022-12-14T16:06:17.361Z,0.46
2022-12-14T16:09:28.458Z,0.38
2022-12-14T16:12:24.538Z,0.34
2022-12-14T16:15:22.416Z,0.30
2022-12-14T16:18:13.565Z,0.25
2022-12-14T16:21:01.276Z,0.29
2022-12-14T16:23:46.642Z,0.39
2022-12-14T16:26:37.614Z,0.31
2022-12-14T16:29:27.678Z,0.28
2022-12-14T16:32:16.417Z,0.13
2022-12-14T16:35:02.712Z,0.18
2022-12-14T16:37:51.296Z,0.13
2022-12-14T16:40:40.315Z,0.13
2022-12-14T16:43:27.893Z,0.12
2022-12-14T16:46:15.726Z,0.23
2022-12-14T16:49:22.310Z,0.29
2022-12-14T16:52:20.051Z,0.35
2022-12-14T16:55:12.030Z,0.30
2022-12-14T16:58:01.399Z,0.16
2022-12-14T17:00:58.311Z,0.36
2022-12-14T17:03:44.001Z,0.34
2022-12-14T17:06:39.091Z,0.30
2022-12-14T17:09:27.482Z,0.32
2022-12-14T17:12:17.747Z,0.36
2022-12-14T17:15:03.228Z,0.34
2022-12-14T17:17:51.655Z,0.42
2022-12-14T17:20:37.213Z,0.22
2022-12-14T17:23:23.057Z,0.15
2022-12-14T17:26:18.566Z,0.24
2022-12-14T17:29:03.951Z,0.17
2022-12-14T17:31:51.754Z,0.23
2022-12-14T17:34:36.995Z,0.24
2022-12-14T17:37:24.477Z,0.25
2022-12-14T17:40:10.007Z,0.27
2022-12-14T17:42:57.465Z,0.53
2022-12-14T17:45:42.907Z,0.44
2022-12-14T17:48:28.720Z,0.40
2022-12-14T17:51:25.575Z,0.30
2022-12-14T17:54:19.007Z,0.34
2022-12-14T17:57:07.354Z,0.33
2022-12-14T18:00:11.745Z,0.40
2022-12-14T18:02:57.440Z,0.35
2022-12-14T18:05:48.414Z,0.44
2022-12-14T18:08:34.311Z,0.50
2022-12-14T18:11:22.500Z,0.48
2022-12-14T18:14:09.094Z,0.51
2022-12-14T18:16:55.611Z,0.51
2022-12-14T18:19:40.924Z,0.61
2022-12-14T18:22:26.125Z,0.59
2022-12-14T18:25:27.058Z,0.47
2022-12-14T18:28:12.305Z,0.62
2022-12-14T18:31:02.156Z,0.62
2022-12-14T18:33:47.560Z,0.55
2022-12-14T18:36:32.701Z,0.72
2022-12-14T18:39:18.318Z,0.72
2022-12-14T18:42:03.675Z,0.73
2022-12-14T18:44:48.978Z,0.83
2022-12-14T18:47:41.710Z,0.86
2022-12-14T18:50:29.204Z,0.96
2022-12-14T18:53:16.778Z,0.95
2022-12-14T18:56:03.761Z,0.97
2022-12-14T18:58:50.090Z,0.91
2022-12-14T19:01:35.307Z,0.82
2022-12-14T19:04:22.336Z,0.69
2022-12-14T19:07:07.309Z,0.90
2022-12-14T19:09:52.658Z,0.85
2022-12-14T19:12:37.860Z,0.84
2022-12-14T19:15:26.510Z,0.97
2022-12-14T19:18:11.985Z,0.96
2022-12-14T19:20:57.088Z,0.99
2022-12-14T19:23:42.081Z,0.91
2022-12-14T19:26:28.999Z,0.92
2022-12-14T19:29:14.098Z,0.96
2022-12-14T19:32:04.828Z,0.93
2022-12-14T19:34:50.900Z,1.01
2022-12-14T19:37:36.183Z,0.96
2022-12-14T19:40:21.498Z,0.90
2022-12-14T19:43:06.609Z,0.88
2022-12-14T19:45:52.210Z,0.82
2022-12-14T19:48:38.167Z,0.97
2022-12-14T19:51:23.621Z,0.94
2022-12-14T19:54:09.118Z,0.85
2022-12-14T19:56:54.328Z,0.97
2022-12-14T19:59:39.571Z,1.02
2022-12-14T20:02:25.151Z,1.00
2022-12-14T20:05:10.687Z,0.93
2022-12-14T20:07:55.945Z,1.02
2022-12-14T20:10:40.846Z,0.93
2022-12-14T20:13:27.385Z,0.96
2022-12-14T20:16:17.079Z,0.97
2022-12-14T20:19:03.696Z,0.99
2022-12-14T20:21:48.976Z,0.91
2022-12-14T20:24:35.781Z,0.96
2022-12-14T20:27:20.792Z,1.01
2022-12-14T20:30:06.741Z,0.94
2022-12-14T20:32:51.754Z,1.08
2022-12-14T20:35:36.899Z,1.20
2022-12-14T20:38:22.135Z,1.07
2022-12-14T20:41:10.170Z,1.00
2022-12-14T20:43:55.835Z,0.92
2022-12-14T20:46:44.676Z,0.96
2022-12-14T20:49:32.791Z,0.83
2022-12-14T20:52:17.739Z,0.92
2022-12-14T20:55:03.140Z,0.86
2022-12-14T20:57:48.305Z,0.82
2022-12-14T21:00:33.822Z,0.81
2022-12-14T21:03:19.076Z,0.82
2022-12-14T21:06:04.379Z,0.83
2022-12-14T21:09:02.279Z,0.72
2022-12-14T21:12:08.795Z,0.80
2022-12-14T21:14:56.285Z,0.75
2022-12-14T21:17:41.431Z,0.70
2022-12-14T21:20:26.596Z,0.76
2022-12-14T21:23:11.740Z,0.63
2022-12-14T21:26:02.161Z,0.62
2022-12-14T21:28:47.401Z,0.59
2022-12-14T21:31:33.250Z,0.58
2022-12-14T21:34:20.315Z,0.58
2022-12-14T21:37:05.663Z,0.59
2022-12-14T21:39:54.256Z,0.54
2022-12-14T21:42:40.968Z,0.57
2022-12-14T21:45:26.268Z,0.52
2022-12-14T21:48:11.329Z,0.42
2022-12-14T21:50:56.264Z,0.48
2022-12-14T21:53:58.474Z,0.43
2022-12-14T21:57:02.179Z,0.43
2022-12-14T21:59:47.353Z,0.30
2022-12-14T22:02:32.689Z,0.36
2022-12-14T22:05:18.191Z,0.24
2022-12-14T22:08:03.329Z,0.42
2022-12-14T22:10:48.636Z,0.34
2022-12-14T22:13:33.856Z,0.33
2022-12-14T22:16:18.916Z,0.36
2022-12-14T22:19:04.037Z,0.27
2022-12-14T22:21:50.996Z,0.38
2022-12-14T22:24:36.310Z,0.25
2022-12-14T22:27:21.548Z,0.34
2022-12-14T22:30:08.604Z,0.20
2022-12-14T22:32:53.539Z,0.24
2022-12-14T22:35:38.510Z,0.19
2022-12-14T22:38:25.118Z,0.33
2022-12-14T22:41:14.187Z,0.21
2022-12-14T22:43:59.546Z,0.06
2022-12-14T22:46:44.994Z,-0.11
2022-12-14T22:49:30.194Z,-0.31
2022-12-14T22:52:17.523Z,-0.21
2022-12-14T22:55:07.727Z,-0.19
2022-12-14T22:57:54.023Z,-0.24
2022-12-14T23:00:38.979Z,-0.19
2022-12-14T23:03:25.428Z,-0.04
2022-12-14T23:06:15.574Z,-0.15
2022-12-14T23:09:19.336Z,-0.22
2022-12-14T23:12:23.120Z,-0.36
2022-12-14T23:15:28.143Z,-0.51
2022-12-14T23:18:31.927Z,-0.61
2022-12-14T23:21:35.686Z,-0.51
2022-12-14T23:24:39.507Z,-0.49
2022-12-14T23:27:43.355Z,-0.42
2022-12-14T23:30:47.249Z,-0.67
2022-12-14T23:33:51.595Z,-0.71
2022-12-14T23:36:55.407Z,-0.87
2022-12-14T23:39:59.199Z,-1.02
2022-12-14T23:43:03.053Z,-1.06
2022-12-14T23:46:06.777Z,-1.04
2022-12-14T23:49:15.709Z,-1.07
2022-12-14T23:52:20.119Z,-1.10
2022-12-14T23:55:24.643Z,-1.17
2022-12-14T23:58:28.616Z,-1.11
